Decoded Metar for KVBG (LOMPOC in CA, USA) (IATA:VBG) | Meteo·Mobile Aviation Weather
aviador You're here:

KVBG Decoded Metar

LOMPOC in CA, USA
Report Time2018-12-11 10:58:00
UTC Time2018-12-11 11:59:03
Flight Rules vfr VFR
Wind050° at 10 kt
W.Decomp.*RWY 12: 1.0 kt HW 9.9 kt LCW
W.Rank050° ranks 24
Current wind is above 050° avg. (4.4)
Visibility9999 m
Phenomena:N/A
Clouds:N/A
Expected CloudBase > 2,000 ft AGL from Temp-Dew spread
CeilingNone
Temp09°C (ISA -5)
Dew Point04°C (71% RH)
AAT4.1°C
QNH1018 hPa
Density Alt-322 ft
Elevation367 ft
Report Wrong Elevation
Raw Report
KVBG 111058Z AUTO 05010KT 10SM CLR 09/04 A3007 RMK AO2 SLP186
T00940044 $=

Extra information for KVBG:More info

Metar Taf Metar & Taf Last 4 Metars F.Rules Stats Wind Profile Meteogram Temp Stats Airport Information Weather charts Add Link Nearby VenuesMetar ALERT Operation Metar Decoded Social comments

AIRNAV info for KVBG